Latest Weather Observations for Warruwi

IDD60801

Issued at 4:35 pm CST Saturday 29 November 2014 (issued every 30 minutes, with the page automatically refreshed every 10 minutes)

About weather observations | Map of weather stations | Latest weather observations for NT | Other Formats
Station Details ID: 014401 Name: WARRUWI AIRPORT Lat: -11.65 Lon: 133.38 Height: 19.2 m
Data from the previous 72 hours. | See also: Recent months at Warruwi
Date/Time
CST
Temp
°C
App
Temp
°C
Dew
Point
Rel
Hum
%
Delta-T
°C
Wind Press
QNH
hPa
Press
MSL
hPa
Rain
since 9 am
mm
Dir
 
Spd
km/h
Gust
km/h
Spd
kts
Gust
kts
29/04:30pm 32.1 35.2 22.8 58 6.4 N 11 22 6 12 1005.3 1005.1 0.0
29/04:00pm 32.7 35.8 22.8 56 6.8 NNE 11 22 6 12 1005.4 1005.2 0.0
29/03:30pm 33.6 37.0 22.7 53 7.5 NNE 9 20 5 11 1005.5 1005.3 0.0
29/03:00pm 32.1 34.5 22.2 56 6.8 NNE 13 22 7 12 1005.6 1005.4 0.0
29/02:30pm 32.6 35.8 23.0 57 6.6 N 11 19 6 10 1006.0 1005.8 0.0
29/02:00pm 32.4 35.3 23.1 58 6.4 N 13 22 7 12 1006.4 1006.2 0.0
29/01:30pm 32.3 35.1 23.0 58 6.4 N 13 22 7 12 1007.0 1006.8 0.0
29/01:00pm 31.6 35.7 23.2 61 5.8 NNE 7 17 4 9 1007.5 1007.3 0.0
29/12:30pm 32.6 37.4 24.1 61 5.9 NE 6 15 3 8 1008.1 1007.9 0.0
29/12:00pm 31.6 35.5 22.9 60 6.0 NNE 7 15 4 8 1008.7 1008.5 0.0
29/11:30am 32.1 35.7 23.1 59 6.2 NE 9 17 5 9 1009.1 1008.9 0.0
29/11:00am 31.5 35.5 23.1 61 5.8 NNE 7 15 4 8 1009.4 1009.2 0.0
29/10:30am 30.6 34.1 23.5 66 4.9 ENE 11 19 6 10 1009.8 1009.6 0.0
29/10:00am 30.9 34.7 22.8 62 5.5 E 7 11 4 6 1010.1 1009.9 0.0
29/09:30am 31.5 35.2 23.3 61 5.7 E 9 15 5 8 1010.1 1009.9 0.0
29/09:00am 31.5 35.6 23.3 61 5.7 N 7 11 4 6 1010.2 1010.0 0.0
29/08:30am 29.7 33.9 23.2 68 4.5 NNW 6 9 3 5 1010.1 1009.9 0.0
29/08:00am 30.3 34.7 23.5 67 4.7 ENE 6 9 3 5 1009.9 1009.7 0.0
29/07:30am 29.6 34.2 23.1 68 4.5 NNE 4 7 2 4 1009.9 1009.7 0.0
29/07:00am 28.7 33.7 23.8 75 3.4 NNE 4 6 2 3 1009.5 1009.3 0.0
29/06:30am 27.4 33.1 23.8 81 2.5 CALM 0 0 0 0 1009.1 1008.9 0.0
29/06:00am 27.2 32.7 23.4 80 2.6 CALM 0 0 0 0 1008.8 1008.6 0.0
29/05:30am 27.3 33.0 23.7 81 2.5 CALM 0 0 0 0 1008.5 1008.3 0.0
29/05:00am 27.2 32.9 23.7 81 2.4 CALM 0 0 0 0 1008.0 1007.8 0.0
29/04:30am 27.4 32.6 23.6 80 2.6 N 2 4 1 2 1007.8 1007.6 0.0
29/04:00am 28.0 33.7 23.8 78 2.9 CALM 0 2 0 1 1007.7 1007.5 0.0
29/03:30am 28.2 34.0 24.0 78 2.9 CALM 0 0 0 0 1007.8 1007.6 0.0
29/03:00am 27.8 33.5 23.8 79 2.8 CALM 0 2 0 1 1007.4 1007.2 0.0
29/02:30am 27.6 32.5 23.6 79 2.8 N 4 6 2 3 1007.3 1007.1 0.0
29/02:00am 27.8 32.7 23.6 78 2.9 N 4 6 2 3 1007.9 1007.7 0.0
29/01:30am 28.1 33.9 23.9 78 2.9 CALM 0 0 0 0 1008.5 1008.3 0.0
29/01:00am 28.1 33.8 23.7 77 3.0 CALM 0 4 0 2 1008.6 1008.4 0.0
29/12:30am 28.0 33.6 23.6 77 3.0 CALM 0 0 0 0 1009.0 1008.8 0.0
29/12:00am 28.4 34.1 23.8 76 3.2 CALM 0 0 0 0 1009.2 1009.0 0.0
 
Date/Time
CST
Temp
°C
App
Temp
°C
Dew
Point
Rel
Hum
%
Delta-T
°C
Wind Press
QNH
hPa
Press
MSL
hPa
Rain
since 9 am
mm
Dir
 
Spd
km/h
Gust
km/h
Spd
kts
Gust
kts
28/11:30pm 28.4 33.6 23.5 75 3.4 N 2 6 1 3 1009.3 1009.1 0.0
28/11:00pm 28.9 34.3 23.8 74 3.5 NNE 2 4 1 2 1009.6 1009.4 0.0
28/10:30pm 28.9 33.8 23.6 73 3.7 NE 4 6 2 3 1009.6 1009.4 0.0
28/10:00pm 29.1 34.2 24.0 74 3.5 NE 4 7 2 4 1009.6 1009.4 0.0
28/09:30pm 29.0 34.4 23.9 74 3.5 NNE 2 6 1 3 1009.4 1009.2 0.0
28/09:00pm 29.1 34.1 23.8 73 3.7 NNE 4 7 2 4 1008.8 1008.6 0.0
28/08:30pm 29.3 34.2 23.7 72 3.9 NNE 4 7 2 4 1008.6 1008.4 0.0
28/08:00pm 29.3 33.8 23.7 72 3.9 NE 6 9 3 5 1008.4 1008.2 0.0
28/07:30pm 29.3 33.8 24.0 73 3.7 NNE 7 13 4 7 1008.0 1007.8 0.0
28/07:00pm 29.2 33.7 23.9 73 3.7 NNE 7 13 4 7 1007.5 1007.3 0.0
28/06:30pm 29.4 33.3 23.6 71 4.0 NE 9 15 5 8 1007.1 1006.9 0.0
28/06:00pm 29.7 33.6 23.6 69 4.2 NE 9 15 5 8 1006.9 1006.7 0.0
28/05:30pm 30.0 34.1 23.2 67 4.7 ENE 7 15 4 8 1006.8 1006.6 0.0
28/05:00pm 30.9 34.4 22.8 62 5.5 NNE 9 15 5 8 1006.5 1006.3 0.0
28/04:30pm 31.9 34.7 22.3 56 6.6 NE 11 20 6 11 1006.2 1006.0 0.0
28/04:00pm 32.1 34.7 21.9 54 6.9 NE 11 20 6 11 1006.2 1006.0 0.0
28/03:30pm 33.1 35.5 22.2 52 7.5 ENE 13 22 7 12 1006.4 1006.2 0.0
28/03:00pm 32.1 35.1 21.9 54 6.9 NE 9 17 5 9 1007.0 1006.8 0.0
28/02:30pm 32.9 35.8 23.2 56 6.7 NE 13 22 7 12 1007.2 1007.0 0.0
28/02:00pm 32.3 34.9 22.7 57 6.6 NE 13 22 7 12 1007.5 1007.3 0.0
28/01:30pm 32.5 34.6 21.7 53 7.3 ENE 13 22 7 12 1008.0 1007.8 0.0
28/01:00pm 33.1 35.2 23.7 57 6.5 E 19 24 10 13 1008.7 1008.5 0.0
28/12:30pm 32.8 35.4 24.0 60 6.2 E 17 24 9 13 1009.2 1009.0 0.0
28/12:00pm 32.7 34.8 23.1 57 6.6 E 17 22 9 12 1009.6 1009.4 0.0
28/11:30am 32.5 35.3 23.7 59 6.1 E 15 20 8 11 1010.0 1009.8 0.0
28/11:00am 31.9 33.9 22.9 59 6.2 E 17 22 9 12 1010.3 1010.1 0.0
28/10:30am 31.7 34.9 23.0 60 6.0 ENE 11 22 6 12 1010.4 1010.2 0.0
28/10:00am 31.0 33.7 22.9 62 5.6 E 13 17 7 9 1010.6 1010.4 0.0
28/09:30am 30.9 34.8 23.0 62 5.4 ENE 7 17 4 9 1010.8 1010.6 0.0
28/09:00am 30.9 33.8 22.5 61 5.7 E 11 17 6 9 1010.9 1010.7 0.0
28/08:30am 30.5 34.7 23.4 66 4.9 ENE 7 13 4 7 1010.7 1010.5 0.0
28/08:00am 29.7 33.6 22.9 67 4.6 NE 7 13 4 7 1010.4 1010.2 0.0
28/07:30am 29.1 33.4 23.3 71 4.0 ENE 6 11 3 6 1010.5 1010.3 0.0
28/07:00am 28.8 33.7 23.7 74 3.5 ENE 4 6 2 3 1009.9 1009.7 0.0
28/06:30am 27.6 33.0 23.2 77 3.0 CALM 0 0 0 0 1009.6 1009.4 0.0
28/06:00am 27.3 32.1 22.9 77 3.0 NNE 2 4 1 2 1009.2 1009.0 0.0
28/05:30am 27.8 32.4 23.2 76 3.1 NE 4 6 2 3 1008.9 1008.7 0.0
28/05:00am 28.0 32.2 23.2 75 3.3 NE 6 9 3 5 1008.7 1008.5 0.0
28/04:30am 28.1 32.9 23.5 76 3.2 NNE 4 7 2 4 1008.7 1008.5 0.0
28/04:00am 28.2 32.9 23.3 75 3.4 NE 4 7 2 4 1008.5 1008.3 0.0
28/03:30am 28.1 32.3 23.2 74 3.4 ENE 6 9 3 5 1008.7 1008.5 0.0
28/03:00am 28.2 32.5 23.6 76 3.2 NE 7 13 4 7 1008.3 1008.1 0.0
28/02:30am 28.2 32.7 23.6 76 3.2 ENE 6 7 3 4 1008.4 1008.2 0.0
28/02:00am 28.2 32.7 23.6 76 3.2 NE 6 11 3 6 1008.4 1008.2 0.0
28/01:30am 28.4 32.6 23.5 75 3.4 ENE 7 15 4 8 1008.5 1008.3 0.0
28/01:00am 28.5 32.6 23.9 76 3.2 ENE 9 19 5 10 1008.7 1008.5 0.0
28/12:30am 28.6 32.4 23.5 74 3.5 ENE 9 17 5 9 1009.0 1008.8 0.0
28/12:00am 28.7 32.7 23.8 75 3.4 NE 9 17 5 9 1009.4 1009.2 0.0
 
Date/Time
CST
Temp
°C
App
Temp
°C
Dew
Point
Rel
Hum
%
Delta-T
°C
Wind Press
QNH
hPa
Press
MSL
hPa
Rain
since 9 am
mm
Dir
 
Spd
km/h
Gust
km/h
Spd
kts
Gust
kts
27/11:30pm 28.7 32.7 23.8 75 3.4 NE 9 17 5 9 1009.4 1009.2 0.0
27/11:00pm 28.8 32.9 23.9 75 3.4 NE 9 17 5 9 1009.6 1009.4 0.0
27/10:30pm 28.9 33.2 24.2 76 3.3 NE 9 17 5 9 1009.6 1009.4 0.0
27/10:00pm 28.9 32.5 23.8 74 3.5 NE 11 19 6 10 1009.7 1009.5 0.0
27/09:30pm 28.9 32.9 23.8 74 3.5 NE 9 22 5 12 1009.7 1009.5 0.0
27/09:00pm 29.0 33.6 24.1 75 3.4 NE 7 13 4 7 1009.4 1009.2 0.0
27/08:30pm 29.0 33.8 24.1 75 3.4 NNE 6 11 3 6 1009.1 1008.9 0.0
27/08:00pm 29.0 32.8 24.1 75 3.4 NNE 11 24 6 13 1008.7 1008.5 0.0
27/07:30pm 29.1 33.1 23.8 73 3.7 NNE 9 19 5 10 1008.3 1008.1 0.0
27/07:00pm 29.3 32.9 23.7 72 3.9 NNE 11 19 6 10 1008.3 1008.1 0.0
27/06:30pm 29.6 32.7 23.5 69 4.2 NNE 13 22 7 12 1008.2 1008.0 0.0
27/06:00pm 30.3 33.8 23.5 67 4.7 NE 11 19 6 10 1007.6 1007.4 0.0
27/05:30pm 30.8 33.2 22.9 62 5.4 NE 15 30 8 16 1007.3 1007.1 0.0
27/05:00pm 31.0 33.5 23.1 63 5.4 NE 15 30 8 16 1007.2 1007.0 0.0
27/04:30pm 31.6 33.9 23.4 61 5.7 NE 17 26 9 14 1007.1 1006.9 0.0
27/04:00pm 31.5 34.1 23.3 61 5.7 NE 15 24 8 13 1007.0 1006.8 0.0
27/03:30pm 32.0 34.4 23.0 59 6.2 ENE 15 28 8 15 1007.1 1006.9 0.0
27/03:00pm 32.2 34.0 23.2 59 6.2 ENE 19 30 10 16 1007.4 1007.2 0.0
27/02:30pm 32.6 34.3 23.0 57 6.6 ENE 19 28 10 15 1007.8 1007.6 0.0
27/02:00pm 32.5 34.4 23.4 58 6.3 E 19 28 10 15 1008.1 1007.9 0.0
27/01:30pm 32.0 34.3 23.5 60 5.9 E 17 32 9 17 1008.5 1008.3 0.0
27/01:00pm 32.4 34.3 23.4 59 6.2 E 19 32 10 17 1008.9 1008.7 0.0
27/12:30pm 32.2 33.2 22.9 58 6.4 E 22 30 12 16 1009.2 1009.0 0.0
27/12:00pm 32.6 34.7 23.8 59 6.1 E 19 26 10 14 1009.6 1009.4 0.0
27/11:30am 31.8 34.0 23.3 60 5.9 E 17 22 9 12 1009.8 1009.6 0.0
27/11:00am 32.6 34.8 23.3 58 6.4 E 17 24 9 13 1010.3 1010.1 0.0
27/10:30am 32.1 34.5 23.6 60 5.9 E 17 22 9 12 1010.2 1010.0 0.0
27/10:00am 31.4 33.9 23.8 64 5.3 E 17 22 9 12 1010.5 1010.3 0.0
27/09:30am 31.1 33.8 24.2 66 4.8 E 17 22 9 12 1010.3 1010.1 0.0
27/09:00am 31.0 33.1 24.1 66 4.8 ESE 20 26 11 14 1010.1 1009.9 1.8
27/08:30am 30.6 33.7 23.5 66 4.9 ENE 13 20 7 11 1009.7 1009.5 1.8
27/08:00am 30.3 33.8 23.5 67 4.7 ENE 11 17 6 9 1009.7 1009.5 1.8
27/07:30am 29.6 33.0 23.3 69 4.3 E 11 19 6 10 1009.5 1009.3 1.8
27/07:00am 28.9 33.3 23.8 74 3.5 ENE 7 13 4 7 1009.2 1009.0 1.8
27/06:30am 28.4 32.6 23.5 75 3.4 ENE 7 15 4 8 1008.8 1008.6 1.8
27/06:00am 28.3 32.5 23.4 75 3.4 ENE 7 13 4 7 1008.4 1008.2 1.8
27/05:30am 28.4 32.6 23.5 75 3.4 NE 7 15 4 8 1008.2 1008.0 1.8
27/05:00am 28.3 32.5 23.4 75 3.4 ENE 7 15 4 8 1007.8 1007.6 1.8
27/04:30am 28.3 32.8 23.7 76 3.2 ENE 6 9 3 5 1007.6 1007.4 1.8
27/04:00am 28.4 32.6 23.5 75 3.4 ENE 7 13 4 7 1007.5 1007.3 1.8
27/03:30am 28.3 32.7 23.4 75 3.4 ENE 6 11 3 6 1007.6 1007.4 1.8
27/03:00am 28.4 32.8 23.5 75 3.4 ENE 6 9 3 5 1007.6 1007.4 1.8
27/02:30am 28.6 32.9 23.7 75 3.4 ENE 7 13 4 7 1007.7 1007.5 1.8
27/02:00am 28.4 32.8 23.5 75 3.4 NE 6 13 3 7 1008.0 1007.8 1.8
27/01:30am 28.6 32.8 23.5 74 3.5 ENE 7 13 4 7 1008.0 1007.8 1.8
27/01:00am 28.5 33.2 23.9 76 3.2 ENE 6 11 3 6 1008.3 1008.1 1.8
27/12:30am 28.4 32.8 23.5 75 3.4 ENE 6 11 3 6 1008.5 1008.3 1.8
27/12:00am 28.4 32.8 23.5 75 3.4 ENE 6 9 3 5 1008.8 1008.6 1.8
 
Date/Time
CST
Temp
°C
App
Temp
°C
Dew
Point
Rel
Hum
%
Delta-T
°C
Wind Press
QNH
hPa
Press
MSL
hPa
Rain
since 9 am
mm
Dir
 
Spd
km/h
Gust
km/h
Spd
kts
Gust
kts
26/11:30pm 28.4 33.2 23.5 75 3.4 NNE 4 7 2 4 1008.9 1008.7 1.8
26/11:00pm 28.6 33.0 23.5 74 3.5 ENE 6 11 3 6 1009.0 1008.8 1.8
26/10:30pm 28.7 32.9 23.4 73 3.6 ENE 7 15 4 8 1008.9 1008.7 1.8
26/10:00pm 28.5 32.9 23.4 74 3.5 NE 6 13 3 7 1008.8 1008.6 1.8
26/09:30pm 28.7 32.3 23.1 71 3.8 NE 9 15 5 8 1008.6 1008.4 1.8
26/09:00pm 28.9 32.5 23.1 71 4.0 ENE 9 17 5 9 1008.5 1008.3 1.8
26/08:30pm 28.9 32.4 22.9 70 4.1 ENE 9 15 5 8 1008.1 1007.9 1.8
26/08:00pm 29.0 31.9 22.5 68 4.4 ENE 11 17 6 9 1007.9 1007.7 1.8
26/07:30pm 29.1 32.3 22.3 66 4.6 ENE 9 15 5 8 1007.4 1007.2 1.8
26/07:00pm 29.2 32.2 21.9 64 4.9 ENE 9 19 5 10 1006.8 1006.6 1.8
26/06:30pm 29.4 32.4 21.9 64 5.1 NE 9 19 5 10 1006.6 1006.4 1.8
26/06:00pm 30.2 33.3 22.1 62 5.5 ENE 9 20 5 11 1006.7 1006.5 1.8
26/05:30pm 30.6 32.4 21.9 59 5.9 ENE 15 24 8 13 1006.5 1006.3 1.8
26/05:00pm 30.9 32.5 22.2 59 5.9 E 17 30 9 16 1006.3 1006.1 1.8

Other Formats:

Comma delimited format used in spreadsheet applications
http://www.bom.gov.au/fwo/IDD60801/IDD60801.94139.axf

JavaScript Object Notation format (JSON) in row-major order
http://www.bom.gov.au/fwo/IDD60801/IDD60801.94139.json